createdAt,value
2023-05-06T00:00:31.432Z,14.70
2023-05-06T00:03:15.605Z,14.68
2023-05-06T00:05:45.884Z,17.60
2023-05-06T00:08:14.338Z,16.83
2023-05-06T00:10:42.428Z,15.95
2023-05-06T00:13:11.040Z,14.20
2023-05-06T00:15:40.483Z,20.80
2023-05-06T00:18:08.963Z,15.63
2023-05-06T00:20:38.474Z,18.98
2023-05-06T00:23:06.906Z,16.42
2023-05-06T00:25:34.999Z,12.52
2023-05-06T00:28:03.348Z,12.10
2023-05-06T00:30:31.626Z,13.88
2023-05-06T00:33:00.060Z,11.88
2023-05-06T00:35:28.306Z,14.13
2023-05-06T00:37:59.505Z,14.00
2023-05-06T00:40:27.803Z,15.98
2023-05-06T00:42:56.142Z,19.70
2023-05-06T00:45:25.156Z,16.95
2023-05-06T00:47:53.799Z,16.00
2023-05-06T00:50:22.365Z,17.58
2023-05-06T00:52:51.414Z,18.77
2023-05-06T00:55:21.961Z,19.52
2023-05-06T00:57:50.527Z,20.80
2023-05-06T01:03:18.648Z,18.58
2023-05-06T01:05:52.531Z,17.27
2023-05-06T01:08:27.156Z,16.63
2023-05-06T01:11:00.960Z,16.30
2023-05-06T01:13:35.181Z,16.88
2023-05-06T01:16:04.690Z,22.48
2023-05-06T01:18:33.989Z,20.48
2023-05-06T01:21:03.322Z,18.35
2023-05-06T01:23:51.538Z,17.20
2023-05-06T01:26:19.875Z,14.73
2023-05-06T01:28:47.973Z,17.00
2023-05-06T01:31:24.065Z,16.25
2023-05-06T01:34:00.771Z,19.35
2023-05-06T01:36:33.563Z,22.95
2023-05-06T01:39:11.734Z,15.55
2023-05-06T01:41:41.230Z,14.48
2023-05-06T01:44:09.643Z,23.20
2023-05-06T01:46:38.120Z,17.73
2023-05-06T01:49:08.092Z,21.85
2023-05-06T01:51:36.443Z,17.35
2023-05-06T01:54:05.960Z,14.40
2023-05-06T01:56:34.403Z,19.85
2023-05-06T01:59:02.441Z,14.02
2023-05-06T02:01:30.837Z,16.98
2023-05-06T02:03:59.171Z,17.30
2023-05-06T02:06:27.854Z,14.90
2023-05-06T02:08:55.938Z,13.93
2023-05-06T02:11:25.744Z,16.23
2023-05-06T02:13:54.964Z,18.13
2023-05-06T02:16:23.586Z,15.38
2023-05-06T02:18:51.676Z,15.90
2023-05-06T02:21:20.023Z,19.35
2023-05-06T02:23:48.313Z,16.20
2023-05-06T02:26:16.888Z,17.30
2023-05-06T02:28:46.360Z,14.95
2023-05-06T02:31:15.868Z,15.75
2023-05-06T02:33:44.750Z,15.85
2023-05-06T02:36:13.115Z,15.98
2023-05-06T02:38:41.322Z,15.45
2023-05-06T02:41:10.546Z,14.25
2023-05-06T02:43:38.701Z,16.17
2023-05-06T02:46:08.585Z,15.40
2023-05-06T02:48:36.753Z,13.13
2023-05-06T02:51:06.190Z,18.55
2023-05-06T02:53:34.469Z,16.38
2023-05-06T02:56:02.846Z,20.10
2023-05-06T02:58:30.944Z,14.60
2023-05-06T03:00:59.389Z,16.08
2023-05-06T03:03:28.864Z,15.35
2023-05-06T03:05:57.212Z,16.25
2023-05-06T03:08:25.509Z,20.58
2023-05-06T03:10:53.857Z,18.10
2023-05-06T03:13:22.090Z,16.08
2023-05-06T03:15:53.777Z,18.30
2023-05-06T03:18:22.067Z,18.67
2023-05-06T03:20:51.854Z,14.85
2023-05-06T03:23:19.961Z,21.30
2023-05-06T03:25:48.444Z,18.10
2023-05-06T03:28:16.556Z,18.70
2023-05-06T03:30:44.929Z,15.02
2023-05-06T03:33:13.043Z,12.63
2023-05-06T03:35:41.706Z,12.95
2023-05-06T03:38:11.381Z,13.75
2023-05-06T03:40:40.079Z,15.25
2023-05-06T03:43:08.186Z,13.57
2023-05-06T03:45:36.640Z,16.27
2023-05-06T03:48:04.979Z,15.70
2023-05-06T03:50:33.359Z,15.98
2023-05-06T03:53:01.496Z,16.02
2023-05-06T03:55:31.299Z,15.57
2023-05-06T03:57:59.349Z,12.20
2023-05-06T04:00:27.748Z,21.90
2023-05-06T04:02:55.898Z,17.60
2023-05-06T04:05:24.284Z,14.93
2023-05-06T04:07:52.391Z,19.67
2023-05-06T04:10:21.433Z,12.70
2023-05-06T04:12:50.982Z,14.43
2023-05-06T04:15:19.629Z,12.02
2023-05-06T04:17:47.996Z,13.75
2023-05-06T04:20:16.894Z,13.73
2023-05-06T04:22:44.992Z,16.33
2023-05-06T04:25:13.543Z,12.40
2023-05-06T04:27:41.779Z,11.50
2023-05-06T04:30:13.246Z,14.23
2023-05-06T04:32:41.547Z,12.52
2023-05-06T04:35:10.772Z,13.35
2023-05-06T04:37:39.106Z,11.30
2023-05-06T04:40:09.213Z,12.07
2023-05-06T04:42:38.001Z,11.35
2023-05-06T04:45:07.428Z,15.75
2023-05-06T04:47:37.184Z,13.27
2023-05-06T04:50:06.267Z,15.52
2023-05-06T04:52:34.837Z,11.07
2023-05-06T04:55:03.192Z,12.93
2023-05-06T04:57:31.846Z,11.88
2023-05-06T05:00:00.265Z,8.93
2023-05-06T05:02:28.402Z,15.77
2023-05-06T05:04:58.189Z,17.60
2023-05-06T05:07:26.314Z,15.95
2023-05-06T05:09:54.660Z,10.93
2023-05-06T05:12:22.755Z,14.40
2023-05-06T05:14:51.180Z,14.57
2023-05-06T05:17:19.266Z,15.15
2023-05-06T05:19:47.590Z,13.27
2023-05-06T05:22:17.193Z,13.18
2023-05-06T05:24:45.694Z,17.73
2023-05-06T05:27:13.977Z,15.88
2023-05-06T05:29:42.343Z,11.23
2023-05-06T05:32:10.409Z,18.80
2023-05-06T05:34:38.796Z,21.52
2023-05-06T05:37:06.857Z,15.25
2023-05-06T05:39:36.609Z,14.40
2023-05-06T05:42:04.921Z,18.95
2023-05-06T05:44:33.317Z,19.50
2023-05-06T05:47:01.394Z,13.77
2023-05-06T05:49:30.027Z,15.38
2023-05-06T05:51:58.154Z,12.45
2023-05-06T05:54:26.733Z,12.65
2023-05-06T05:56:56.289Z,12.15
2023-05-06T05:59:24.649Z,10.30
2023-05-06T06:01:52.779Z,17.65
2023-05-06T06:04:21.334Z,17.02
2023-05-06T06:06:49.503Z,11.13
2023-05-06T06:09:17.886Z,11.32
2023-05-06T06:11:45.977Z,10.70
2023-05-06T06:14:15.700Z,12.95
2023-05-06T06:16:43.963Z,10.05
2023-05-06T06:19:12.490Z,11.05
2023-05-06T06:21:40.658Z,14.60
2023-05-06T06:24:09.154Z,16.10
2023-05-06T06:26:37.337Z,13.43
2023-05-06T06:29:05.698Z,16.08
2023-05-06T06:31:36.269Z,14.80
2023-05-06T06:34:06.539Z,10.40
2023-05-06T06:36:34.753Z,11.05
2023-05-06T06:39:03.132Z,13.23
2023-05-06T06:41:31.450Z,12.95
2023-05-06T06:43:59.901Z,9.77
2023-05-06T06:46:28.170Z,12.35
2023-05-06T06:48:57.873Z,11.85
2023-05-06T06:51:25.992Z,12.90
2023-05-06T06:53:54.340Z,11.93
2023-05-06T06:56:23.032Z,10.63
2023-05-06T06:58:53.253Z,12.45
2023-05-06T07:01:21.896Z,11.02
2023-05-06T07:03:50.401Z,9.85
2023-05-06T07:06:19.851Z,12.43
2023-05-06T07:08:48.354Z,12.88
2023-05-06T07:11:16.625Z,10.52
2023-05-06T07:13:44.981Z,11.57
2023-05-06T07:16:13.139Z,12.40
2023-05-06T07:18:41.494Z,9.25
2023-05-06T07:21:09.568Z,12.88
2023-05-06T07:23:39.589Z,15.02
2023-05-06T07:26:07.704Z,9.43
2023-05-06T07:28:36.071Z,10.23
2023-05-06T07:31:04.294Z,7.88
2023-05-06T07:33:32.684Z,11.13
2023-05-06T07:36:00.887Z,11.05
2023-05-06T07:38:29.337Z,9.27
2023-05-06T07:40:58.872Z,10.70
2023-05-06T07:43:27.221Z,13.45
2023-05-06T07:46:02.334Z,12.20
2023-05-06T07:48:31.357Z,12.93
2023-05-06T07:50:59.595Z,16.05
2023-05-06T07:53:28.402Z,10.32
2023-05-06T07:56:02.036Z,10.52
2023-05-06T07:58:30.989Z,12.52
2023-05-06T08:00:59.939Z,11.35
2023-05-06T08:03:28.446Z,11.07
2023-05-06T08:05:56.790Z,10.88
2023-05-06T08:08:27.790Z,11.13
2023-05-06T08:10:55.945Z,10.07
2023-05-06T08:13:25.824Z,11.20
2023-05-06T08:15:54.068Z,13.40
2023-05-06T08:18:23.314Z,14.15
2023-05-06T08:20:52.070Z,9.45
2023-05-06T08:23:21.302Z,10.60
2023-05-06T08:25:49.398Z,8.68
2023-05-06T08:28:17.854Z,8.82
2023-05-06T08:30:48.495Z,11.00
2023-05-06T08:33:16.975Z,10.15
2023-05-06T08:35:45.861Z,10.35
2023-05-06T08:38:14.246Z,11.57
2023-05-06T08:40:45.149Z,11.73
2023-05-06T08:43:15.065Z,11.07
2023-05-06T08:45:43.259Z,14.10
2023-05-06T08:48:13.069Z,11.43
2023-05-06T08:50:43.503Z,10.95
2023-05-06T08:53:13.299Z,16.88
2023-05-06T08:55:42.922Z,9.10
2023-05-06T08:58:12.783Z,8.45
2023-05-06T09:00:41.285Z,15.68
2023-05-06T09:03:09.558Z,7.95
2023-05-06T09:05:40.150Z,9.63
2023-05-06T09:08:08.267Z,10.20
2023-05-06T09:10:44.546Z,10.18
2023-05-06T09:13:14.018Z,11.68
2023-05-06T09:15:42.904Z,38.75
2023-05-06T09:18:11.764Z,63.70
2023-05-06T09:20:43.648Z,11.73
2023-05-06T09:23:13.108Z,9.43
2023-05-06T09:25:42.367Z,119.10
2023-05-06T09:28:12.091Z,16.67
2023-05-06T09:30:41.663Z,7.78
2023-05-06T09:33:10.272Z,16.88
2023-05-06T09:35:40.077Z,17.45
2023-05-06T09:46:18.201Z,14.35
2023-05-06T09:48:47.816Z,11.95
2023-05-06T09:51:16.224Z,11.40
2023-05-06T09:53:46.418Z,11.77
2023-05-06T09:56:16.073Z,15.48
2023-05-06T09:58:44.788Z,11.65
2023-05-06T10:01:19.235Z,12.07
2023-05-06T10:03:55.899Z,13.60
2023-05-06T10:06:24.558Z,13.75
2023-05-06T10:08:54.106Z,17.48
2023-05-06T10:11:22.934Z,10.95
2023-05-06T10:13:51.427Z,14.88
2023-05-06T10:16:20.010Z,14.02
2023-05-06T10:18:49.789Z,9.90
2023-05-06T10:21:23.710Z,17.55
2023-05-06T10:23:56.401Z,7.47
2023-05-06T10:26:24.673Z,11.77
2023-05-06T10:28:54.864Z,14.80
2023-05-06T10:31:22.975Z,14.75
2023-05-06T10:33:53.007Z,17.20
2023-05-06T10:36:24.336Z,12.48
2023-05-06T10:38:56.424Z,16.08
2023-05-06T10:43:57.212Z,15.90
2023-05-06T10:46:26.163Z,10.98
2023-05-06T10:49:20.341Z,12.23
2023-05-06T10:51:50.006Z,14.20
2023-05-06T10:54:25.435Z,10.88
2023-05-06T10:57:10.121Z,16.52
2023-05-06T10:59:38.530Z,22.70
2023-05-06T11:02:10.735Z,20.42
2023-05-06T11:04:40.305Z,18.92
2023-05-06T11:07:11.645Z,17.42
2023-05-06T11:09:56.483Z,12.82
2023-05-06T11:12:48.932Z,23.50
2023-05-06T11:15:35.965Z,16.83
2023-05-06T11:18:43.312Z,18.75
2023-05-06T11:21:40.057Z,16.83
2023-05-06T11:24:13.246Z,23.63
2023-05-06T11:26:43.098Z,20.80
2023-05-06T11:29:11.277Z,24.15
2023-05-06T11:31:43.952Z,24.38
2023-05-06T11:34:14.689Z,23.52
2023-05-06T11:36:51.862Z,23.10
2023-05-06T11:39:21.416Z,29.05
2023-05-06T11:41:49.801Z,27.63
2023-05-06T11:44:28.859Z,33.35
2023-05-06T11:46:58.569Z,27.00
2023-05-06T11:49:27.416Z,27.58
2023-05-06T11:51:56.924Z,27.10
2023-05-06T11:54:27.660Z,29.73
2023-05-06T11:56:58.012Z,24.90
2023-05-06T11:59:31.489Z,19.83
2023-05-06T12:02:01.309Z,25.77
2023-05-06T12:04:29.741Z,28.92
2023-05-06T12:06:58.203Z,27.13
2023-05-06T12:09:27.824Z,28.05
2023-05-06T12:11:56.305Z,30.63
2023-05-06T12:14:24.557Z,26.70
2023-05-06T12:16:55.964Z,29.45
2023-05-06T12:19:26.536Z,27.70
2023-05-06T12:21:55.645Z,24.52
2023-05-06T12:24:31.079Z,29.13
2023-05-06T12:26:59.534Z,29.00
2023-05-06T12:29:27.590Z,31.15
2023-05-06T12:32:09.545Z,30.55
2023-05-06T12:34:38.319Z,33.47
2023-05-06T12:37:07.275Z,35.80
2023-05-06T12:39:37.554Z,35.55
2023-05-06T12:42:06.387Z,32.60
2023-05-06T12:44:36.410Z,35.80
2023-05-06T12:47:07.377Z,36.05
2023-05-06T12:49:49.104Z,38.00
2023-05-06T12:52:18.218Z,30.80
2023-05-06T12:54:47.876Z,32.15
2023-05-06T12:57:16.624Z,36.65
2023-05-06T12:59:45.564Z,32.78
2023-05-06T13:02:14.458Z,34.28
2023-05-06T13:04:44.208Z,41.80
2023-05-06T13:07:12.968Z,35.75
2023-05-06T13:09:41.093Z,34.05
2023-05-06T13:12:10.834Z,31.17
2023-05-06T13:14:40.243Z,36.13
2023-05-06T13:17:09.104Z,49.85
2023-05-06T13:19:37.349Z,53.55
2023-05-06T13:22:05.826Z,49.22
2023-05-06T13:24:33.938Z,38.65
2023-05-06T13:27:02.432Z,33.38
2023-05-06T13:29:31.982Z,37.08
2023-05-06T13:32:00.707Z,39.38
2023-05-06T13:34:29.228Z,38.70
2023-05-06T13:36:57.563Z,44.97
2023-05-06T13:39:26.082Z,38.70
2023-05-06T13:41:54.580Z,39.05
2023-05-06T13:44:24.449Z,42.75
2023-05-06T13:46:54.308Z,32.85
2023-05-06T13:49:22.518Z,36.38
2023-05-06T13:51:50.927Z,33.00
2023-05-06T13:54:22.286Z,32.13
2023-05-06T13:56:51.290Z,34.22
2023-05-06T13:59:19.386Z,34.28
2023-05-06T14:01:49.917Z,29.92
2023-05-06T14:04:19.575Z,30.20
2023-05-06T14:06:48.221Z,34.05
2023-05-06T14:09:16.665Z,38.00
2023-05-06T14:11:45.034Z,29.50
2023-05-06T14:14:13.108Z,47.15
2023-05-06T14:16:41.565Z,40.45
2023-05-06T14:19:09.701Z,40.60
2023-05-06T14:21:39.374Z,49.90
2023-05-06T14:24:08.182Z,42.17
2023-05-06T14:26:36.762Z,49.05
2023-05-06T14:29:04.845Z,49.35
2023-05-06T14:31:34.708Z,55.78
2023-05-06T14:34:03.519Z,74.43
2023-05-06T14:36:31.896Z,50.72
2023-05-06T14:39:01.450Z,67.13
2023-05-06T14:41:30.236Z,40.47
2023-05-06T14:43:58.359Z,43.88
2023-05-06T14:46:29.152Z,37.67
2023-05-06T14:48:58.014Z,40.55
2023-05-06T14:51:26.387Z,42.25
2023-05-06T14:53:54.463Z,40.25
2023-05-06T14:56:24.266Z,37.17
2023-05-06T14:58:52.391Z,36.72
2023-05-06T15:01:21.105Z,38.05
2023-05-06T15:03:50.678Z,38.33
2023-05-06T15:06:19.034Z,42.20
2023-05-06T15:08:47.220Z,50.17
2023-05-06T15:11:15.805Z,51.45
2023-05-06T15:13:45.245Z,48.92
2023-05-06T15:16:13.622Z,44.33
2023-05-06T15:18:42.784Z,46.65
2023-05-06T15:21:13.201Z,42.88
2023-05-06T15:23:41.588Z,51.13
2023-05-06T15:26:09.958Z,51.78
2023-05-06T15:28:38.084Z,45.15
2023-05-06T15:31:08.354Z,47.53
2023-05-06T15:33:36.654Z,42.90
2023-05-06T15:36:06.101Z,44.90
2023-05-06T15:38:59.646Z,50.80
2023-05-06T15:41:29.377Z,52.45
2023-05-06T15:43:59.214Z,46.45
2023-05-06T15:46:29.583Z,47.22
2023-05-06T15:49:22.417Z,49.13
2023-05-06T15:51:46.301Z,46.08
2023-05-06T15:54:15.423Z,48.40
2023-05-06T15:56:43.791Z,40.08
2023-05-06T15:59:12.218Z,40.10
2023-05-06T16:02:24.677Z,63.95
2023-05-06T16:04:32.147Z,38.35
2023-05-06T16:07:00.718Z,36.15
2023-05-06T16:09:28.808Z,44.03
2023-05-06T16:11:57.496Z,44.47
2023-05-06T16:14:25.574Z,41.65
2023-05-06T16:16:55.328Z,39.75
2023-05-06T16:19:23.490Z,40.55
2023-05-06T16:21:52.935Z,35.35
2023-05-06T16:24:21.027Z,37.35
2023-05-06T16:26:49.423Z,38.80
2023-05-06T16:29:20.311Z,35.38
2023-05-06T16:31:49.252Z,36.80
2023-05-06T16:34:18.911Z,42.42
2023-05-06T16:36:47.233Z,39.72
2023-05-06T16:39:15.348Z,37.28
2023-05-06T16:41:43.706Z,38.70
2023-05-06T16:44:11.776Z,40.30
2023-05-06T16:46:40.187Z,36.40
2023-05-06T16:49:08.504Z,37.35
2023-05-06T16:51:38.607Z,36.40
2023-05-06T16:54:06.744Z,32.22
2023-05-06T16:56:48.151Z,36.30
2023-05-06T16:59:21.890Z,35.70
2023-05-06T17:01:50.868Z,32.85
2023-05-06T17:04:18.984Z,40.30
2023-05-06T17:06:49.197Z,41.85
2023-05-06T17:09:17.388Z,40.25
2023-05-06T17:11:45.771Z,37.28
2023-05-06T17:14:13.940Z,40.92
2023-05-06T17:16:43.133Z,41.75
2023-05-06T17:19:11.763Z,42.72
2023-05-06T17:21:40.214Z,35.17
2023-05-06T17:24:09.963Z,38.47
2023-05-06T17:26:40.201Z,39.42
2023-05-06T17:29:08.826Z,43.05
2023-05-06T17:31:37.407Z,44.35
2023-05-06T17:34:05.518Z,38.13
2023-05-06T17:36:33.968Z,41.60
2023-05-06T17:39:06.030Z,40.78
2023-05-06T17:41:35.767Z,43.08
2023-05-06T17:44:03.846Z,41.22
2023-05-06T17:46:33.252Z,43.67
2023-05-06T17:49:01.530Z,44.25
2023-05-06T17:51:29.861Z,44.75
2023-05-06T17:53:58.821Z,46.63
2023-05-06T17:56:27.591Z,49.00
2023-05-06T17:59:01.203Z,59.17
2023-05-06T18:01:29.938Z,52.42
2023-05-06T18:03:58.483Z,60.17
2023-05-06T18:06:28.711Z,58.20
2023-05-06T18:08:56.936Z,58.38
2023-05-06T18:11:25.617Z,53.60
2023-05-06T18:13:53.894Z,61.67
2023-05-06T18:16:23.784Z,58.33
2023-05-06T18:18:51.968Z,58.28
2023-05-06T18:21:20.370Z,52.80
2023-05-06T18:23:49.845Z,52.30
2023-05-06T18:26:39.485Z,51.15
2023-05-06T18:29:08.201Z,48.78
2023-05-06T18:31:37.936Z,49.78
2023-05-06T18:34:06.094Z,49.55
2023-05-06T18:36:35.491Z,43.00
2023-05-06T18:39:04.465Z,46.03
2023-05-06T18:41:32.873Z,51.55
2023-05-06T18:44:02.513Z,54.88
2023-05-06T18:46:31.213Z,52.05
2023-05-06T18:49:01.512Z,51.47
2023-05-06T18:51:29.926Z,45.67
2023-05-06T18:53:58.028Z,47.35
2023-05-06T18:56:26.398Z,47.05
2023-05-06T18:58:54.499Z,42.38
2023-05-06T19:01:22.927Z,55.28
2023-05-06T19:03:51.726Z,48.03
2023-05-06T19:06:21.616Z,46.10
2023-05-06T19:08:49.741Z,41.45
2023-05-06T19:11:19.326Z,43.35
2023-05-06T19:13:47.799Z,47.42
2023-05-06T19:16:16.357Z,44.85
2023-05-06T19:18:44.656Z,41.92
2023-05-06T19:21:13.656Z,41.17
2023-05-06T19:23:43.097Z,39.63
2023-05-06T19:26:11.967Z,38.97
2023-05-06T19:28:40.990Z,43.63
2023-05-06T19:31:10.397Z,43.95
2023-05-06T19:33:38.861Z,39.10
2023-05-06T19:36:07.750Z,40.45
2023-05-06T19:38:35.912Z,44.03
2023-05-06T19:41:06.077Z,43.20
2023-05-06T19:43:34.263Z,40.28
2023-05-06T19:46:02.667Z,43.00
2023-05-06T19:48:31.129Z,38.10
2023-05-06T19:50:59.551Z,43.60
2023-05-06T19:53:27.675Z,53.63
2023-05-06T19:55:57.796Z,48.00
2023-05-06T19:58:27.245Z,46.78
2023-05-06T20:00:55.574Z,49.83
2023-05-06T20:03:23.794Z,47.17
2023-05-06T20:05:52.229Z,51.25
2023-05-06T20:08:20.364Z,45.13
2023-05-06T20:10:49.398Z,42.25
2023-05-06T20:13:17.982Z,49.70
2023-05-06T20:15:48.374Z,47.03
2023-05-06T20:18:16.590Z,45.85
2023-05-06T20:20:45.058Z,51.15
2023-05-06T20:23:13.148Z,46.97
2023-05-06T20:25:41.520Z,45.38
2023-05-06T20:28:09.855Z,41.88
2023-05-06T20:30:38.921Z,49.30
2023-05-06T20:33:09.548Z,42.55
2023-05-06T20:35:40.371Z,43.60
2023-05-06T20:38:09.266Z,46.83
2023-05-06T20:40:37.853Z,45.00
2023-05-06T20:43:05.997Z,43.45
2023-05-06T20:45:34.596Z,39.75
2023-05-06T20:48:02.810Z,41.55
2023-05-06T20:50:32.668Z,43.90
2023-05-06T20:53:02.345Z,45.63
2023-05-06T20:55:31.301Z,49.70
2023-05-06T20:57:59.654Z,38.63
2023-05-06T21:00:28.061Z,44.00
2023-05-06T21:02:56.428Z,41.03
2023-05-06T21:05:25.028Z,40.70
2023-05-06T21:07:54.544Z,44.92
2023-05-06T21:10:22.964Z,39.63
2023-05-06T21:12:51.653Z,42.05
2023-05-06T21:15:20.034Z,41.40
2023-05-06T21:17:48.247Z,35.90
2023-05-06T21:20:16.964Z,34.15
2023-05-06T21:22:45.107Z,33.10
2023-05-06T21:25:14.930Z,31.95
2023-05-06T21:27:43.266Z,26.38
2023-05-06T21:30:12.143Z,25.70
2023-05-06T21:32:40.461Z,24.60
2023-05-06T21:35:09.597Z,23.15
2023-05-06T21:37:37.844Z,26.85
2023-05-06T21:40:07.152Z,23.75
2023-05-06T21:42:36.604Z,26.70
2023-05-06T21:45:05.593Z,23.63
2023-05-06T21:47:33.885Z,22.67
2023-05-06T21:50:02.281Z,23.52
2023-05-06T21:52:30.423Z,24.00
2023-05-06T21:54:58.937Z,30.77
2023-05-06T21:57:27.023Z,25.38
2023-05-06T21:59:56.788Z,27.60
2023-05-06T22:02:25.083Z,21.75
2023-05-06T22:04:53.734Z,24.27
2023-05-06T22:07:22.177Z,23.45
2023-05-06T22:09:50.625Z,22.13
2023-05-06T22:12:18.710Z,20.02
2023-05-06T22:14:47.149Z,19.85
2023-05-06T22:17:16.649Z,28.95
2023-05-06T22:19:45.025Z,20.13
2023-05-06T22:22:13.584Z,20.67
2023-05-06T22:24:42.058Z,23.67
2023-05-06T22:27:10.252Z,20.27
2023-05-06T22:29:38.584Z,26.17
2023-05-06T22:32:07.201Z,22.00
2023-05-06T22:34:37.258Z,25.40
2023-05-06T22:37:09.730Z,22.65
2023-05-06T22:39:39.071Z,23.75
2023-05-06T22:42:07.177Z,22.77
2023-05-06T22:44:35.541Z,23.60
2023-05-06T22:47:03.646Z,24.70
2023-05-06T22:49:32.819Z,22.75
2023-05-06T22:52:02.296Z,28.15
2023-05-06T22:54:30.627Z,25.70
2023-05-06T22:56:58.795Z,24.45
2023-05-06T22:59:27.236Z,25.63
2023-05-06T23:01:55.954Z,26.48
2023-05-06T23:04:24.334Z,26.63
2023-05-06T23:06:52.398Z,23.65
2023-05-06T23:09:22.128Z,26.15
2023-05-06T23:11:50.223Z,30.20
2023-05-06T23:14:19.376Z,30.85
2023-05-06T23:16:47.672Z,27.33
2023-05-06T23:19:16.079Z,25.00
2023-05-06T23:21:44.478Z,32.00
2023-05-06T23:24:13.034Z,25.95
2023-05-06T23:26:42.474Z,28.35
2023-05-06T23:29:10.934Z,32.17
2023-05-06T23:31:39.024Z,28.92
2023-05-06T23:34:07.366Z,34.08
2023-05-06T23:36:35.579Z,33.42
2023-05-06T23:39:04.113Z,28.83
2023-05-06T23:41:32.209Z,34.08
2023-05-06T23:44:01.934Z,33.50
2023-05-06T23:46:30.094Z,33.20
2023-05-06T23:48:58.462Z,32.65
2023-05-06T23:51:26.628Z,34.85
2023-05-06T23:53:55.063Z,30.27
2023-05-06T23:56:23.132Z,33.40
2023-05-06T23:58:51.586Z,30.17
